createdAt,value
2017-10-22T00:01:07.643Z,23.58
2017-10-22T00:03:35.111Z,22.20
2017-10-22T00:06:02.581Z,21.25
2017-10-22T00:08:30.063Z,18.27
2017-10-22T00:10:57.543Z,21.95
2017-10-22T00:13:25.025Z,21.52
2017-10-22T00:15:52.509Z,21.42
2017-10-22T00:18:19.979Z,18.50
2017-10-22T00:20:47.466Z,16.08
2017-10-22T00:23:15.081Z,17.12
2017-10-22T00:25:42.555Z,13.82
2017-10-22T00:28:10.043Z,13.10
2017-10-22T00:30:37.525Z,18.73
2017-10-22T00:33:05.016Z,15.68
2017-10-22T00:35:32.476Z,11.12
2017-10-22T00:37:59.961Z,12.82
2017-10-22T00:40:27.453Z,17.05
2017-10-22T00:42:55.763Z,12.90
2017-10-22T00:45:23.248Z,16.62
2017-10-22T00:47:50.746Z,11.75
2017-10-22T00:50:18.235Z,11.43
2017-10-22T00:52:45.714Z,10.32
2017-10-22T00:55:13.171Z,11.70
2017-10-22T00:57:40.635Z,12.13
2017-10-22T01:00:08.121Z,11.40
2017-10-22T01:02:35.586Z,11.63
2017-10-22T01:05:03.828Z,12.55
2017-10-22T01:07:31.360Z,15.05
2017-10-22T01:09:58.863Z,15.73
2017-10-22T01:12:26.361Z,13.55
2017-10-22T01:14:54.351Z,9.98
2017-10-22T01:17:21.814Z,9.02
2017-10-22T01:19:49.305Z,13.65
2017-10-22T01:22:16.783Z,14.73
2017-10-22T01:24:44.279Z,17.35
2017-10-22T01:27:11.758Z,14.25
2017-10-22T01:29:39.259Z,10.40
2017-10-22T01:32:06.750Z,11.15
2017-10-22T01:34:34.232Z,11.07
2017-10-22T01:37:01.731Z,18.10
2017-10-22T01:39:29.208Z,8.30
2017-10-22T01:41:56.707Z,13.27
2017-10-22T01:44:24.193Z,11.98
2017-10-22T01:46:51.696Z,12.75
2017-10-22T01:49:19.171Z,13.27
2017-10-22T01:51:46.723Z,10.10
2017-10-22T01:54:14.211Z,14.35
2017-10-22T01:56:41.722Z,10.32
2017-10-22T01:59:09.216Z,9.95
2017-10-22T02:01:36.693Z,9.27
2017-10-22T02:04:04.923Z,11.00
2017-10-22T02:06:32.395Z,10.90
2017-10-22T02:08:59.867Z,12.25
2017-10-22T02:11:27.348Z,9.23
2017-10-22T02:13:54.843Z,11.55
2017-10-22T02:16:22.312Z,11.65
2017-10-22T02:18:49.802Z,8.20
2017-10-22T02:21:17.394Z,11.48
2017-10-22T02:23:44.891Z,11.93
2017-10-22T02:26:12.353Z,13.68
2017-10-22T02:28:39.836Z,8.05
2017-10-22T02:31:07.328Z,11.32
2017-10-22T02:33:34.826Z,18.23
2017-10-22T02:36:02.304Z,13.07
2017-10-22T02:38:29.846Z,13.90
2017-10-22T02:40:57.360Z,10.68
2017-10-22T02:43:24.859Z,14.90
2017-10-22T02:45:52.345Z,13.90
2017-10-22T02:48:19.841Z,12.30
2017-10-22T02:50:47.374Z,13.52
2017-10-22T02:53:14.899Z,15.80
2017-10-22T02:55:42.391Z,11.12
2017-10-22T02:58:09.874Z,11.70
2017-10-22T03:00:37.340Z,11.50
2017-10-22T03:03:04.897Z,12.88
2017-10-22T03:05:32.375Z,15.25
2017-10-22T03:07:59.843Z,13.35
2017-10-22T03:10:27.318Z,12.73
2017-10-22T03:12:54.799Z,11.65
2017-10-22T03:15:22.511Z,8.85
2017-10-22T03:17:50.024Z,13.60
2017-10-22T03:20:17.503Z,11.20
2017-10-22T03:22:45.016Z,10.73
2017-10-22T03:25:12.494Z,14.10
2017-10-22T03:27:39.971Z,9.43
2017-10-22T03:30:07.436Z,10.40
2017-10-22T03:32:34.942Z,16.30
2017-10-22T03:35:03.221Z,10.57
2017-10-22T03:37:30.778Z,13.48
2017-10-22T03:39:58.335Z,14.87
2017-10-22T03:42:26.589Z,12.55
2017-10-22T03:44:54.075Z,11.82
2017-10-22T03:47:22.342Z,15.25
2017-10-22T03:49:49.871Z,11.38
2017-10-22T03:52:17.374Z,12.90
2017-10-22T03:54:44.835Z,12.85
2017-10-22T03:57:12.288Z,10.93
2017-10-22T03:59:39.745Z,8.73
2017-10-22T04:02:07.303Z,11.57
2017-10-22T04:04:34.813Z,9.45
2017-10-22T04:07:02.311Z,12.73
2017-10-22T04:09:30.544Z,10.48
2017-10-22T04:11:58.044Z,9.68
2017-10-22T04:14:26.308Z,15.20
2017-10-22T04:16:53.787Z,7.85
2017-10-22T04:19:21.314Z,11.77
2017-10-22T04:21:48.800Z,9.57
2017-10-22T04:24:16.265Z,6.78
2017-10-22T04:26:44.279Z,8.20
2017-10-22T04:29:11.776Z,11.18
2017-10-22T04:31:40.062Z,7.65
2017-10-22T04:34:08.048Z,6.87
2017-10-22T04:36:35.551Z,10.15
2017-10-22T04:39:03.448Z,11.75
2017-10-22T04:41:30.950Z,9.35
2017-10-22T04:43:58.437Z,18.77
2017-10-22T04:46:25.918Z,9.48
2017-10-22T04:48:54.166Z,8.15
2017-10-22T04:51:21.649Z,8.70
2017-10-22T04:53:49.926Z,12.23
2017-10-22T04:56:18.224Z,9.93
2017-10-22T04:58:45.741Z,8.40
2017-10-22T05:01:13.483Z,14.68
2017-10-22T05:03:40.983Z,11.70
2017-10-22T05:06:09.260Z,14.68
2017-10-22T05:08:36.739Z,10.95
2017-10-22T05:11:04.265Z,10.38
2017-10-22T05:13:32.530Z,10.20
2017-10-22T05:16:00.017Z,11.98
2017-10-22T05:18:27.476Z,11.00
2017-10-22T05:20:54.995Z,6.37
2017-10-22T05:23:23.428Z,7.72
2017-10-22T05:25:50.943Z,9.65
2017-10-22T05:28:18.416Z,5.90
2017-10-22T05:30:45.888Z,10.73
2017-10-22T05:33:13.398Z,13.90
2017-10-22T05:35:44.463Z,6.20
2017-10-22T05:38:25.518Z,10.57
2017-10-22T05:40:53.709Z,11.05
2017-10-22T05:43:22.739Z,7.95
2017-10-22T05:45:50.392Z,4.93
2017-10-22T05:48:18.862Z,8.57
2017-10-22T05:50:47.940Z,7.28
2017-10-22T05:53:18.043Z,12.68
2017-10-22T05:55:49.066Z,8.68
2017-10-22T05:58:36.926Z,10.57
2017-10-22T06:01:08.413Z,7.80
2017-10-22T06:03:37.767Z,8.90
2017-10-22T06:06:12.717Z,8.32
2017-10-22T06:08:44.007Z,5.05
2017-10-22T06:11:13.408Z,8.70
2017-10-22T06:13:43.585Z,4.90
2017-10-22T06:16:12.656Z,9.05
2017-10-22T06:18:48.621Z,8.70
2017-10-22T06:21:25.342Z,6.32
2017-10-22T06:23:54.096Z,10.38
2017-10-22T06:26:34.991Z,14.90
2017-10-22T06:35:40.004Z,7.95
2017-10-22T06:38:09.023Z,7.03
2017-10-22T06:40:36.706Z,12.52
2017-10-22T06:43:15.426Z,11.95
2017-10-22T06:45:44.494Z,11.95
2017-10-22T06:48:17.635Z,9.32
2017-10-22T06:56:43.787Z,5.40
2017-10-22T06:59:11.351Z,16.83
2017-10-22T07:01:38.921Z,10.68
2017-10-22T07:04:06.644Z,10.27
2017-10-22T07:06:34.149Z,8.70
2017-10-22T07:09:01.791Z,10.75
2017-10-22T07:11:29.347Z,5.40
2017-10-22T07:13:56.902Z,12.63
2017-10-22T07:16:24.430Z,10.95
2017-10-22T07:18:52.076Z,8.80
2017-10-22T07:21:19.583Z,14.68
2017-10-22T07:23:47.139Z,9.38
2017-10-22T07:26:14.660Z,10.48
2017-10-22T07:28:42.166Z,9.63
2017-10-22T07:31:13.486Z,11.85
2017-10-22T07:33:40.964Z,9.10
2017-10-22T07:36:08.534Z,8.40
2017-10-22T07:38:39.061Z,16.10
2017-10-22T07:41:58.341Z,7.65
2017-10-22T07:44:26.429Z,11.55
2017-10-22T07:46:53.997Z,10.13
2017-10-22T07:49:21.481Z,10.75
2017-10-22T07:51:48.969Z,8.35
2017-10-22T07:54:16.463Z,10.63
2017-10-22T07:56:43.954Z,12.60
2017-10-22T07:59:11.430Z,16.75
2017-10-22T08:01:38.903Z,12.37
2017-10-22T08:04:06.455Z,11.55
2017-10-22T08:06:33.939Z,9.85
2017-10-22T08:09:01.498Z,8.65
2017-10-22T08:11:29.036Z,10.93
2017-10-22T08:13:56.566Z,9.30
2017-10-22T08:16:24.063Z,9.73
2017-10-22T08:18:51.756Z,12.93
2017-10-22T08:21:21.133Z,14.13
2017-10-22T08:23:48.773Z,8.90
2017-10-22T08:26:17.099Z,17.42
2017-10-22T08:28:45.130Z,7.78
2017-10-22T08:31:12.630Z,12.43
2017-10-22T08:33:40.520Z,7.90
2017-10-22T08:36:08.228Z,11.90
2017-10-22T08:38:35.818Z,6.78
2017-10-22T08:41:03.516Z,8.63
2017-10-22T08:43:31.090Z,8.50
2017-10-22T08:48:49.307Z,11.68
2017-10-22T08:51:16.832Z,14.85
2017-10-22T08:53:44.379Z,7.55
2017-10-22T08:56:11.940Z,8.20
2017-10-22T08:58:39.550Z,9.88
2017-10-22T09:01:07.312Z,11.93
2017-10-22T09:03:35.813Z,12.48
2017-10-22T09:06:03.434Z,12.70
2017-10-22T09:08:30.938Z,10.63
2017-10-22T09:10:58.407Z,9.80
2017-10-22T09:13:29.258Z,6.95
2017-10-22T09:15:56.863Z,6.18
2017-10-22T09:18:24.693Z,5.70
2017-10-22T09:20:52.253Z,9.27
2017-10-22T09:23:19.912Z,8.35
2017-10-22T09:25:47.399Z,7.70
2017-10-22T09:28:15.133Z,5.70
2017-10-22T09:30:43.415Z,4.30
2017-10-22T09:33:13.065Z,11.88
2017-10-22T09:35:45.210Z,5.37
2017-10-22T09:38:16.853Z,10.27
2017-10-22T09:40:44.712Z,5.70
2017-10-22T09:43:15.212Z,6.75
2017-10-22T09:46:05.626Z,6.18
2017-10-22T09:48:45.758Z,8.07
2017-10-22T09:51:40.474Z,3.65
2017-10-22T10:00:13.502Z,5.60
2017-10-22T10:02:44.536Z,6.35
2017-10-22T10:05:22.317Z,7.05
2017-10-22T10:07:54.481Z,5.05
2017-10-22T10:10:22.579Z,8.65
2017-10-22T10:12:55.372Z,3.28
2017-10-22T10:15:36.896Z,5.12
2017-10-22T10:21:16.920Z,6.72
2017-10-22T10:23:45.244Z,11.40
2017-10-22T10:32:18.079Z,5.40
2017-10-22T10:34:45.979Z,3.75
2017-10-22T10:40:24.502Z,2.80
2017-10-22T10:42:52.075Z,6.40
2017-10-22T10:45:19.760Z,3.30
2017-10-22T10:47:47.402Z,3.53
2017-10-22T10:50:14.937Z,2.30
2017-10-22T10:52:42.545Z,2.35
2017-10-22T10:55:10.189Z,2.12
2017-10-22T10:57:37.683Z,3.25
2017-10-22T11:00:05.217Z,3.72
2017-10-22T11:02:32.719Z,3.50
2017-10-22T11:05:00.271Z,3.17
2017-10-22T11:07:27.901Z,5.60
2017-10-22T11:09:56.599Z,5.80
2017-10-22T11:12:24.431Z,5.20
2017-10-22T11:14:52.440Z,3.35
2017-10-22T11:17:20.934Z,2.37
2017-10-22T11:19:48.552Z,2.35
2017-10-22T11:22:17.495Z,5.70
2017-10-22T11:24:45.097Z,3.60
2017-10-22T11:27:12.861Z,2.37
2017-10-22T11:29:40.413Z,16.95
2017-10-22T11:32:07.918Z,7.10
2017-10-22T11:34:35.449Z,2.90
2017-10-22T11:37:02.932Z,2.42
2017-10-22T11:39:30.438Z,2.05
2017-10-22T11:41:57.915Z,4.32
2017-10-22T11:44:25.437Z,2.60
2017-10-22T11:46:53.681Z,4.05
2017-10-22T11:49:21.242Z,2.75
2017-10-22T11:51:48.725Z,8.88
2017-10-22T11:54:16.221Z,4.10
2017-10-22T11:56:43.905Z,3.53
2017-10-22T11:59:11.372Z,2.90
2017-10-22T12:01:38.859Z,3.90
2017-10-22T12:04:06.434Z,3.30
2017-10-22T12:06:33.936Z,2.40
2017-10-22T12:09:01.463Z,6.90
2017-10-22T12:11:30.157Z,2.70
2017-10-22T12:13:57.676Z,2.10
2017-10-22T12:16:25.170Z,2.95
2017-10-22T12:18:52.805Z,3.95
2017-10-22T12:21:20.363Z,2.55
2017-10-22T12:23:47.823Z,2.00
2017-10-22T12:26:15.318Z,2.30
2017-10-22T12:28:42.791Z,4.45
2017-10-22T12:31:10.296Z,3.65
2017-10-22T12:33:38.540Z,2.60
2017-10-22T12:36:06.055Z,2.53
2017-10-22T12:38:33.575Z,3.70
2017-10-22T12:41:01.059Z,2.65
2017-10-22T12:43:28.617Z,2.53
2017-10-22T12:45:56.858Z,2.20
2017-10-22T12:48:24.398Z,7.72
2017-10-22T12:50:51.923Z,2.15
2017-10-22T12:53:19.435Z,2.85
2017-10-22T12:55:46.965Z,13.68
2017-10-22T12:58:14.437Z,2.42
2017-10-22T13:00:41.908Z,2.55
2017-10-22T13:03:09.415Z,2.60
2017-10-22T13:05:36.907Z,3.60
2017-10-22T13:08:04.394Z,2.58
2017-10-22T13:10:31.863Z,3.53
2017-10-22T13:12:59.322Z,3.42
2017-10-22T13:15:26.866Z,2.50
2017-10-22T13:17:55.116Z,2.87
2017-10-22T13:20:22.596Z,2.80
2017-10-22T13:22:50.047Z,3.10
2017-10-22T13:25:17.505Z,3.37
2017-10-22T13:27:44.968Z,2.70
2017-10-22T13:30:12.425Z,2.58
2017-10-22T13:32:39.903Z,2.35
2017-10-22T13:35:07.346Z,2.90
2017-10-22T13:37:35.613Z,3.15
2017-10-22T13:40:03.081Z,2.72
2017-10-22T13:42:31.311Z,2.72
2017-10-22T13:44:58.804Z,3.53
2017-10-22T13:47:27.090Z,3.42
2017-10-22T13:49:54.588Z,4.45
2017-10-22T13:52:22.040Z,4.65
2017-10-22T13:54:49.539Z,4.20
2017-10-22T13:57:17.045Z,5.75
2017-10-22T13:59:44.515Z,6.20
2017-10-22T14:02:11.966Z,6.72
2017-10-22T14:04:39.559Z,6.50
2017-10-22T14:07:07.043Z,7.50
2017-10-22T14:09:34.540Z,7.05
2017-10-22T14:12:02.025Z,6.80
2017-10-22T14:14:29.531Z,6.87
2017-10-22T14:16:56.988Z,7.03
2017-10-22T14:19:24.491Z,7.35
2017-10-22T14:21:51.963Z,6.60
2017-10-22T14:24:19.439Z,6.25
2017-10-22T14:26:46.923Z,7.00
2017-10-22T14:29:14.434Z,6.53
2017-10-22T14:31:41.907Z,9.32
2017-10-22T14:34:09.384Z,7.95
2017-10-22T14:36:36.855Z,6.75
2017-10-22T14:39:04.371Z,7.57
2017-10-22T14:41:31.866Z,6.68
2017-10-22T14:43:59.383Z,6.15
2017-10-22T14:46:26.906Z,5.80
2017-10-22T14:48:54.409Z,6.80
2017-10-22T14:51:21.880Z,6.35
2017-10-22T14:53:49.351Z,7.05
2017-10-22T14:56:17.620Z,6.12
2017-10-22T14:58:45.084Z,5.57
2017-10-22T15:01:13.338Z,4.62
2017-10-22T15:03:41.039Z,6.20
2017-10-22T15:06:08.526Z,5.97
2017-10-22T15:08:35.993Z,6.22
2017-10-22T15:11:03.575Z,6.90
2017-10-22T15:13:31.058Z,6.97
2017-10-22T15:15:58.544Z,7.28
2017-10-22T15:18:26.142Z,6.90
2017-10-22T15:20:53.772Z,7.45
2017-10-22T15:23:21.314Z,7.78
2017-10-22T15:25:48.836Z,8.32
2017-10-22T15:28:16.352Z,8.23
2017-10-22T15:30:44.643Z,8.23
2017-10-22T15:33:12.165Z,8.23
2017-10-22T15:35:39.633Z,9.57
2017-10-22T15:38:07.119Z,12.63
2017-10-22T15:40:34.622Z,8.45
2017-10-22T15:43:02.111Z,7.25
2017-10-22T15:45:29.783Z,8.50
2017-10-22T15:47:57.291Z,5.70
2017-10-22T15:50:24.779Z,9.35
2017-10-22T15:52:52.260Z,6.72
2017-10-22T15:55:19.755Z,6.07
2017-10-22T15:57:48.757Z,5.30
2017-10-22T16:00:16.245Z,4.45
2017-10-22T16:02:43.736Z,4.68
2017-10-22T16:05:11.288Z,5.78
2017-10-22T16:07:38.868Z,6.20
2017-10-22T16:10:07.322Z,5.03
2017-10-22T16:12:34.827Z,5.72
2017-10-22T16:15:02.597Z,5.87
2017-10-22T16:17:30.166Z,8.40
2017-10-22T16:19:57.696Z,4.95
2017-10-22T16:22:26.048Z,5.40
2017-10-22T16:24:53.563Z,5.00
2017-10-22T16:27:21.074Z,5.00
2017-10-22T16:29:48.562Z,3.45
2017-10-22T16:32:16.192Z,4.93
2017-10-22T16:34:44.241Z,4.82
2017-10-22T16:37:11.751Z,5.72
2017-10-22T16:39:39.294Z,7.10
2017-10-22T16:42:07.595Z,7.35
2017-10-22T16:44:35.154Z,4.43
2017-10-22T16:47:02.812Z,5.15
2017-10-22T16:49:30.375Z,6.25
2017-10-22T16:51:57.883Z,4.47
2017-10-22T16:54:25.464Z,5.45
2017-10-22T16:56:52.951Z,4.05
2017-10-22T16:59:20.485Z,4.25
2017-10-22T17:01:48.051Z,4.15
2017-10-22T17:04:15.569Z,3.75
2017-10-22T17:06:43.130Z,3.58
2017-10-22T17:09:10.669Z,4.40
2017-10-22T17:11:38.217Z,3.83
2017-10-22T17:14:05.805Z,4.18
2017-10-22T17:16:33.349Z,4.72
2017-10-22T17:19:00.862Z,4.30
2017-10-22T17:21:28.414Z,4.70
2017-10-22T17:23:55.968Z,5.97
2017-10-22T17:26:23.433Z,9.77
2017-10-22T17:28:51.071Z,7.57
2017-10-22T17:31:18.567Z,7.75
2017-10-22T17:33:46.113Z,7.10
2017-10-22T17:36:13.601Z,5.78
2017-10-22T17:38:41.215Z,8.25
2017-10-22T17:41:08.833Z,6.20
2017-10-22T17:43:40.608Z,7.30
2017-10-22T17:46:08.203Z,8.85
2017-10-22T17:48:36.176Z,9.07
2017-10-22T17:51:03.823Z,8.95
2017-10-22T17:53:31.402Z,8.70
2017-10-22T17:55:58.982Z,7.85
2017-10-22T17:58:26.504Z,8.45
2017-10-22T18:00:54.505Z,10.40
2017-10-22T18:03:22.146Z,9.60
2017-10-22T18:05:51.029Z,14.25
2017-10-22T18:08:18.611Z,9.65
2017-10-22T18:10:46.257Z,11.18
2017-10-22T18:13:13.981Z,12.85
2017-10-22T18:15:41.499Z,10.02
2017-10-22T18:18:09.050Z,9.95
2017-10-22T18:20:37.331Z,21.60
2017-10-22T18:23:04.869Z,9.57
2017-10-22T18:25:32.434Z,9.90
2017-10-22T18:28:06.229Z,11.10
2017-10-22T18:30:36.624Z,12.55
2017-10-22T18:35:47.859Z,9.65
2017-10-22T18:38:16.522Z,11.07
2017-10-22T18:40:45.250Z,13.10
2017-10-22T18:43:28.343Z,10.85
2017-10-22T18:45:55.870Z,9.20
2017-10-22T18:48:23.370Z,11.18
2017-10-22T18:50:51.643Z,13.30
2017-10-22T18:53:19.942Z,15.60
2017-10-22T18:55:48.558Z,10.50
2017-10-22T18:58:16.074Z,13.62
2017-10-22T19:00:43.591Z,10.68
2017-10-22T19:03:11.070Z,13.25
2017-10-22T19:05:38.655Z,11.95
2017-10-22T19:08:07.156Z,10.30
2017-10-22T19:10:34.696Z,12.77
2017-10-22T19:13:02.191Z,12.93
2017-10-22T19:15:30.892Z,9.55
2017-10-22T19:17:58.420Z,10.77
2017-10-22T19:20:25.935Z,10.55
2017-10-22T19:22:53.876Z,9.30
2017-10-22T19:25:21.753Z,10.38
2017-10-22T19:27:49.247Z,10.15
2017-10-22T19:30:16.759Z,13.25
2017-10-22T19:32:44.467Z,9.50
2017-10-22T19:35:12.055Z,12.82
2017-10-22T19:37:39.538Z,9.02
2017-10-22T19:40:07.067Z,12.45
2017-10-22T19:42:34.554Z,9.23
2017-10-22T19:45:02.081Z,8.77
2017-10-22T19:47:29.673Z,7.37
2017-10-22T19:49:57.282Z,13.55
2017-10-22T19:52:24.972Z,9.25
2017-10-22T19:54:52.749Z,9.70
2017-10-22T19:57:20.293Z,15.25
2017-10-22T19:59:47.824Z,10.20
2017-10-22T20:02:15.347Z,8.55
2017-10-22T20:04:42.959Z,8.50
2017-10-22T20:07:11.474Z,8.32
2017-10-22T20:09:39.992Z,13.82
2017-10-22T20:12:08.957Z,10.45
2017-10-22T20:14:41.216Z,10.27
2017-10-22T20:17:10.783Z,9.27
2017-10-22T20:19:38.293Z,15.75
2017-10-22T20:22:06.519Z,10.65
2017-10-22T20:24:34.005Z,12.52
2017-10-22T20:27:01.510Z,10.45
2017-10-22T20:29:29.008Z,11.52
2017-10-22T20:31:56.525Z,11.15
2017-10-22T20:34:24.023Z,16.83
2017-10-22T20:36:53.474Z,11.98
2017-10-22T20:39:20.955Z,12.27
2017-10-22T20:41:48.506Z,13.45
2017-10-22T20:44:16.035Z,19.23
2017-10-22T20:46:43.631Z,14.95
2017-10-22T20:49:11.195Z,14.02
2017-10-22T20:51:38.744Z,12.88
2017-10-22T20:54:06.315Z,20.08
2017-10-22T20:56:33.843Z,12.07
2017-10-22T20:59:01.424Z,12.15
2017-10-22T21:01:28.987Z,11.75
2017-10-22T21:03:56.476Z,15.70
2017-10-22T21:06:24.000Z,9.48
2017-10-22T21:08:51.479Z,15.10
2017-10-22T21:11:18.999Z,14.38
2017-10-22T21:13:48.310Z,13.88
2017-10-22T21:16:15.787Z,13.18
2017-10-22T21:18:43.320Z,14.82
2017-10-22T21:21:10.894Z,14.07
2017-10-22T21:23:38.404Z,14.70
2017-10-22T21:26:05.937Z,14.15
2017-10-22T21:28:33.442Z,16.35
2017-10-22T21:31:01.003Z,21.10
2017-10-22T21:33:30.328Z,17.60
2017-10-22T21:35:57.857Z,14.98
2017-10-22T21:38:25.562Z,12.25
2017-10-22T21:40:53.062Z,14.05
2017-10-22T21:43:22.550Z,17.87
2017-10-22T21:45:51.236Z,19.62
2017-10-22T21:48:18.743Z,17.42
2017-10-22T21:50:46.319Z,15.07
2017-10-22T21:53:13.845Z,15.98
2017-10-22T21:55:41.539Z,14.52
2017-10-22T21:58:09.074Z,18.20
2017-10-22T22:00:36.594Z,15.68
2017-10-22T22:03:04.091Z,15.45
2017-10-22T22:05:31.713Z,13.95
2017-10-22T22:07:59.303Z,13.45
2017-10-22T22:10:26.870Z,14.50
2017-10-22T22:12:54.392Z,15.43
2017-10-22T22:15:23.628Z,17.42
2017-10-22T22:17:51.911Z,16.55
2017-10-22T22:20:20.174Z,17.27
2017-10-22T22:22:47.736Z,13.75
2017-10-22T22:25:15.325Z,15.45
2017-10-22T22:27:42.822Z,18.80
2017-10-22T22:30:10.341Z,13.15
2017-10-22T22:32:38.343Z,16.87
2017-10-22T22:35:05.877Z,10.35
2017-10-22T22:37:33.359Z,12.45
2017-10-22T22:40:00.856Z,13.35
2017-10-22T22:42:28.372Z,12.52
2017-10-22T22:44:56.664Z,11.25
2017-10-22T22:47:24.212Z,14.02
2017-10-22T22:49:51.782Z,13.43
2017-10-22T22:52:19.567Z,14.95
2017-10-22T22:54:47.460Z,15.63
2017-10-22T22:57:15.312Z,15.27
2017-10-22T22:59:42.982Z,13.43
2017-10-22T23:02:10.827Z,17.58
2017-10-22T23:04:39.118Z,14.10
2017-10-22T23:07:07.170Z,19.77
2017-10-22T23:09:35.478Z,22.25
2017-10-22T23:12:03.023Z,18.42
2017-10-22T23:14:30.568Z,21.65
2017-10-22T23:16:58.031Z,21.33
2017-10-22T23:19:25.501Z,18.40
2017-10-22T23:21:53.048Z,23.65
2017-10-22T23:24:20.572Z,15.02
2017-10-22T23:26:48.064Z,18.65
2017-10-22T23:29:15.534Z,16.58
2017-10-22T23:31:43.033Z,13.27
2017-10-22T23:34:10.547Z,16.85
2017-10-22T23:36:38.039Z,10.75
2017-10-22T23:39:05.572Z,14.00
2017-10-22T23:41:33.831Z,11.68
2017-10-22T23:44:02.099Z,11.93
2017-10-22T23:46:29.557Z,11.12
2017-10-22T23:48:57.789Z,11.02
2017-10-22T23:51:25.297Z,10.10
2017-10-22T23:53:53.547Z,11.45
2017-10-22T23:56:21.018Z,14.00
2017-10-22T23:58:48.512Z,16.92
